Time;durP1;ratioP1;P1;durP2;ratioP2;P2;SDS_P1;SDS_P2;PMS_P1;PMS_P2;Temp;Humidity;BMP_temperature;BMP_pressure;BME280_temperature;BME280_humidity;BME280_pressure;Samples;Min_cycle;Max_cycle;Signal;HPM_P1;HPM_P2
2021/01/08 00:00:09;;;;;;;;;;;;;;;;;;5025856;28;7820;-51
2021/01/08 00:02:34;;;;;;;;;;;;;;;;;;5024889;28;4224;-50
2021/01/08 00:04:59;;;;;;;;;;;;;;;;;;5021151;28;8036;-50
2021/01/08 00:07:25;;;;;;;;;;;;;;;;;;5008936;28;9432;-51
2021/01/08 00:09:50;;;;;;;;;;;;;;;;;;5025039;28;9359;-50
2021/01/08 00:12:15;;;;;;;;;;;;;;;;;;5021725;28;8573;-51
2021/01/08 00:14:41;;;;;;;;;;;;;;;;;;5022563;28;4223;-49
2021/01/08 00:17:06;;;;;;;;;;;;;;;;;;5024068;28;10017;-50
2021/01/08 00:19:31;;;;;;;;;;;;;;;;;;5026897;28;10293;-49
2021/01/08 00:21:57;;;;;;;;;;;;;;;;;;5019870;28;11305;-49
2021/01/08 00:24:22;;;;;;;;;;;;;;;;;;5026152;28;8120;-50
2021/01/08 00:26:48;;;;;;;;;;;;;;;;;;5010948;28;4029;-50
2021/01/08 00:29:14;;;;;;;;;;;;;;;;;;5020603;28;6874;-50
2021/01/08 00:31:41;;;;;;;;;;;;;;;;;;5029155;28;7201;-50
2021/01/08 00:34:09;;;;;;;;;;;;;;;;;;5027556;28;10864;-51
2021/01/08 00:36:35;;;;;;;;;;;;;;;;;;5018236;28;7414;-50
2021/01/08 00:39:01;;;;;;;;;;;;;;;;;;4998869;28;9287;-50
2021/01/08 00:41:30;;;;;;;;;;;;;;;;;;5027530;28;9719;-50
2021/01/08 00:43:55;;;;;;;;;;;;;;;;;;5014799;28;9489;-48
2021/01/08 00:46:28;;;;;;;;;;;;;;;;;;5016563;28;9058;-49
2021/01/08 00:48:53;;;;;;;;;;;;;;;;;;5023582;28;13489;-50
2021/01/08 00:51:19;;;;;;;;;;;;;;;;;;5025651;28;10402;-51
2021/01/08 00:53:44;;;;;;;;;;;;;;;;;;5027084;28;3994;-51
2021/01/08 00:56:16;;;;;;;;;;;;;;;;;;5021163;28;10356;-50
2021/01/08 00:58:41;;;;;;;;;;;;;;;;;;5017805;28;10410;-50
2021/01/08 01:01:06;;;;;;;;;;;;;;;;;;5019727;28;9885;-50
2021/01/08 01:03:32;;;;;;;;;;;;;;;;;;5036716;28;9261;-50
2021/01/08 01:05:57;;;;;;;;;;;;;;;;;;5029237;28;9072;-49
2021/01/08 01:08:22;;;;;;;;;;;;;;;;;;5027341;28;8086;-50
2021/01/08 01:10:48;;;;;;;;;;;;;;;;;;5020584;28;14883;-50
2021/01/08 01:13:13;;;;;;;;;;;;;;;;;;5024108;28;11442;-51
2021/01/08 01:15:38;;;;;;;;;;;;;;;;;;5024457;28;9498;-49
2021/01/08 01:18:03;;;;;;;;;;;;;;;;;;5029181;28;7624;-50
2021/01/08 01:20:29;;;;;;;;;;;;;;;;;;5029965;28;3934;-50
2021/01/08 01:22:54;;;;;;;;;;;;;;;;;;5029123;28;8596;-50
2021/01/08 01:25:19;;;;;;;;;;;;;;;;;;5019412;28;8364;-49
2021/01/08 01:27:44;;;;;;;;;;;;;;;;;;5019819;28;9405;-49
2021/01/08 01:30:10;;;;;;;;;;;;;;;;;;5024447;28;9248;-50
2021/01/08 01:32:35;;;;;;;;;;;;;;;;;;5021746;28;4061;-50
2021/01/08 01:35:01;;;;;;;;;;;;;;;;;;5022112;28;11198;-50
2021/01/08 01:37:26;;;;;;;;;;;;;;;;;;5024776;28;6691;-50
2021/01/08 01:39:51;;;;;;;;;;;;;;;;;;5024436;28;14084;-50
2021/01/08 01:42:16;;;;;;;;;;;;;;;;;;5021354;28;9316;-50
2021/01/08 01:44:42;;;;;;;;;;;;;;;;;;5028256;28;4005;-50
2021/01/08 01:47:07;;;;;;;;;;;;;;;;;;5036519;28;10306;-49
2021/01/08 01:49:32;;;;;;;;;;;;;;;;;;5024676;28;6608;-50
2021/01/08 01:51:59;;;;;;;;;;;;;;;;;;5011677;28;8268;-49
2021/01/08 01:54:25;;;;;;;;;;;;;;;;;;5015610;28;4657;-50
2021/01/08 01:56:50;;;;;;;;;;;;;;;;;;5016389;28;3928;-50
2021/01/08 01:59:16;;;;;;;;;;;;;;;;;;5021645;28;5896;-48
2021/01/08 02:01:41;;;;;;;;;;;;;;;;;;5021297;28;9378;-49
2021/01/08 02:04:06;;;;;;;;;;;;;;;;;;5023522;28;7057;-49
2021/01/08 02:06:33;;;;;;;;;;;;;;;;;;5023470;28;9248;-50
2021/01/08 02:09:01;;;;;;;;;;;;;;;;;;5018300;28;15527;-51
2021/01/08 02:11:28;;;;;;;;;;;;;;;;;;5027176;28;6930;-51
2021/01/08 02:13:57;;;;;;;;;;;;;;;;;;5021326;28;12786;-50
2021/01/08 02:16:23;;;;;;;;;;;;;;;;;;5024363;28;8978;-50
2021/01/08 02:18:50;;;;;;;;;;;;;;;;;;5013656;28;7259;-49
2021/01/08 02:21:22;;;;;;;;;;;;;;;;;;5022813;28;9370;-49
2021/01/08 02:23:57;;;;;;;;;;;;;;;;;;5030270;28;4266;-49
2021/01/08 02:26:24;;;;;;;;;;;;;;;;;;5024141;28;4064;-50
2021/01/08 02:28:49;;;;;;;;;;;;;;;;;;5022281;28;6706;-50
2021/01/08 02:31:15;;;;;;;;;;;;;;;;;;5016443;28;9950;-49
2021/01/08 02:33:41;;;;;;;;;;;;;;;;;;5026324;28;8068;-50
2021/01/08 02:36:06;;;;;;;;;;;;;;;;;;5009048;28;9201;-50
2021/01/08 02:38:32;;;;;;;;;;;;;;;;;;5033971;28;6930;-49
2021/01/08 02:40:58;;;;;;;;;;;;;;;;;;5020389;28;7669;-51
2021/01/08 02:43:25;;;;;;;;;;;;;;;;;;5013693;28;11028;-50
2021/01/08 02:45:51;;;;;;;;;;;;;;;;;;5025403;28;5126;-49
2021/01/08 02:48:17;;;;;;;;;;;;;;;;;;5029851;28;9473;-50
2021/01/08 02:50:42;;;;;;;;;;;;;;;;;;5038047;28;4240;-50
2021/01/08 02:53:10;;;;;;;;;;;;;;;;;;5025495;28;9886;-50
2021/01/08 02:55:37;;;;;;;;;;;;;;;;;;5027838;28;10404;-50
2021/01/08 02:58:03;;;;;;;;;;;;;;;;;;5028956;28;9755;-49
2021/01/08 03:00:29;;;;;;;;;;;;;;;;;;5020984;28;10845;-50
2021/01/08 03:02:56;;;;;;;;;;;;;;;;;;5019312;28;7227;-50
2021/01/08 03:05:21;;;;;;;;;;;;;;;;;;5020414;28;8975;-50
2021/01/08 03:07:47;;;;;;;;;;;;;;;;;;5018073;28;12051;-49
2021/01/08 03:10:13;;;;;;;;;;;;;;;;;;5019415;28;12501;-49
2021/01/08 03:12:38;;;;;;;;;;;;;;;;;;5011032;28;7353;-50
2021/01/08 03:15:06;;;;;;;;;;;;;;;;;;5016641;28;9252;-51
2021/01/08 03:17:31;;;;;;;;;;;;;;;;;;5027536;28;7268;-50
2021/01/08 03:19:57;;;;;;;;;;;;;;;;;;5025299;28;14369;-50
2021/01/08 03:22:22;;;;;;;;;;;;;;;;;;5025201;28;9388;-50
2021/01/08 03:24:47;;;;;;;;;;;;;;;;;;5019043;28;8921;-49
2021/01/08 03:27:12;;;;;;;;;;;;;;;;;;5021861;28;13023;-50
2021/01/08 03:29:38;;;;;;;;;;;;;;;;;;5011970;28;2217;-50
2021/01/08 03:32:03;;;;;;;;;;;;;;;;;;5026288;28;9026;-49
2021/01/08 03:34:28;;;;;;;;;;;;;;;;;;5020164;28;12476;-50
2021/01/08 03:36:54;;;;;;;;;;;;;;;;;;5016442;28;9847;-50
2021/01/08 03:39:19;;;;;;;;;;;;;;;;;;5025955;28;13036;-49
2021/01/08 03:41:44;;;;;;;;;;;;;;;;;;5024571;28;4988;-50
2021/01/08 03:44:09;;;;;;;;;;;;;;;;;;5026143;28;14595;-50
2021/01/08 03:46:37;;;;;;;;;;;;;;;;;;5021078;28;12960;-48
2021/01/08 03:49:06;;;;;;;;;;;;;;;;;;5024869;28;13787;-48
2021/01/08 03:51:31;;;;;;;;;;;;;;;;;;5025242;28;7432;-49
2021/01/08 03:53:57;;;;;;;;;;;;;;;;;;5028910;28;5348;-48
2021/01/08 03:56:22;;;;;;;;;;;;;;;;;;5020107;28;5609;-49
2021/01/08 03:58:48;;;;;;;;;;;;;;;;;;5019228;28;7102;-50
2021/01/08 04:01:13;;;;;;;;;;;;;;;;;;5018822;28;10664;-51
2021/01/08 04:03:38;;;;;;;;;;;;;;;;;;5013178;28;10730;-49
2021/01/08 04:06:04;;;;;;;;;;;;;;;;;;5032090;28;9558;-50
2021/01/08 04:08:29;;;;;;;;;;;;;;;;;;5029821;28;7065;-50
2021/01/08 04:10:54;;;;;;;;;;;;;;;;;;5017305;28;8187;-50
2021/01/08 04:13:20;;;;;;;;;;;;;;;;;;5018432;28;10206;-50
2021/01/08 04:15:45;;;;;;;;;;;;;;;;;;5017815;28;10113;-51
2021/01/08 04:18:10;;;;;;;;;;;;;;;;;;5020811;28;9778;-48
2021/01/08 04:20:35;;;;;;;;;;;;;;;;;;5012450;28;3889;-49
2021/01/08 04:23:01;;;;;;;;;;;;;;;;;;5021957;28;11325;-50
2021/01/08 04:25:26;;;;;;;;;;;;;;;;;;5020287;28;5615;-49
2021/01/08 04:27:51;;;;;;;;;;;;;;;;;;5025991;28;11520;-50
2021/01/08 04:30:17;;;;;;;;;;;;;;;;;;5017777;28;9271;-49
2021/01/08 04:32:42;;;;;;;;;;;;;;;;;;5026068;28;3997;-50
2021/01/08 04:35:07;;;;;;;;;;;;;;;;;;5024963;28;7723;-50
2021/01/08 04:37:33;;;;;;;;;;;;;;;;;;5018538;28;9322;-50
2021/01/08 04:39:58;;;;;;;;;;;;;;;;;;5026101;28;11263;-49
2021/01/08 04:42:23;;;;;;;;;;;;;;;;;;5027052;28;10321;-49
2021/01/08 04:44:49;;;;;;;;;;;;;;;;;;5039102;28;3914;-49
2021/01/08 04:47:14;;;;;;;;;;;;;;;;;;5025743;28;8138;-50
2021/01/08 04:49:40;;;;;;;;;;;;;;;;;;5026844;28;6983;-49
2021/01/08 04:52:09;;;;;;;;;;;;;;;;;;5029026;28;13861;-49
2021/01/08 04:54:35;;;;;;;;;;;;;;;;;;5024998;28;10824;-49
2021/01/08 04:57:02;;;;;;;;;;;;;;;;;;5025611;28;10715;-51
2021/01/08 04:59:28;;;;;;;;;;;;;;;;;;5024276;28;7804;-50
2021/01/08 05:01:54;;;;;;;;;;;;;;;;;;5027009;28;5271;-50
2021/01/08 05:04:19;;;;;;;;;;;;;;;;;;5020682;28;9300;-50
2021/01/08 05:06:44;;;;;;;;;;;;;;;;;;5030987;28;10996;-50
2021/01/08 05:09:09;;;;;;;;;;;;;;;;;;5025409;28;13053;-48
2021/01/08 05:11:35;;;;;;;;;;;;;;;;;;5031868;28;7534;-49
2021/01/08 05:14:01;;;;;;;;;;;;;;;;;;5024909;28;9433;-51
2021/01/08 05:16:28;;;;;;;;;;;;;;;;;;5022889;28;6626;-50
2021/01/08 05:18:54;;;;;;;;;;;;;;;;;;5023451;28;10390;-50
2021/01/08 05:21:20;;;;;;;;;;;;;;;;;;5032722;28;14722;-50
2021/01/08 05:23:47;;;;;;;;;;;;;;;;;;5024397;28;4353;-49
2021/01/08 05:26:13;;;;;;;;;;;;;;;;;;5029720;28;9346;-50
2021/01/08 05:28:39;;;;;;;;;;;;;;;;;;5029227;28;9549;-50
2021/01/08 05:31:05;;;;;;;;;;;;;;;;;;5019419;28;9420;-50
2021/01/08 05:33:30;;;;;;;;;;;;;;;;;;5023592;28;9384;-48
2021/01/08 05:35:56;;;;;;;;;;;;;;;;;;5020340;28;1563;-50
2021/01/08 05:38:21;;;;;;;;;;;;;;;;;;5024502;28;10470;-50
2021/01/08 05:40:47;;;;;;;;;;;;;;;;;;5026433;28;7418;-51
2021/01/08 05:43:13;;;;;;;;;;;;;;;;;;5026091;28;15621;-49
2021/01/08 05:45:38;;;;;;;;;;;;;;;;;;5023317;28;10438;-50
2021/01/08 05:48:08;;;;;;;;;;;;;;;;;;5030124;28;6939;-48
2021/01/08 05:50:33;;;;;;;;;;;;;;;;;;5020699;28;7017;-48
2021/01/08 05:52:58;;;;;;;;;;;;;;;;;;5029383;28;8522;-50
2021/01/08 05:55:25;;;;;;;;;;;;;;;;;;5017522;28;9472;-50
2021/01/08 05:57:51;;;;;;;;;;;;;;;;;;5029379;28;7738;-50
2021/01/08 06:00:19;;;;;;;;;;;;;;;;;;5026465;28;7020;-50
2021/01/08 06:02:52;;;;;;;;;;;;;;;;;;5006556;28;4261;-49
2021/01/08 06:05:18;;;;;;;;;;;;;;;;;;5028846;28;14037;-49
2021/01/08 06:07:47;;;;;;;;;;;;;;;;;;5023617;28;9275;-49
2021/01/08 06:10:15;;;;;;;;;;;;;;;;;;5006440;28;15385;-50
2021/01/08 06:12:42;;;;;;;;;;;;;;;;;;5029161;28;10928;-50
2021/01/08 06:15:10;;;;;;;;;;;;;;;;;;5025277;28;10963;-49
2021/01/08 06:17:36;;;;;;;;;;;;;;;;;;5022160;28;7295;-48
2021/01/08 06:20:03;;;;;;;;;;;;;;;;;;5017816;28;9745;-50
2021/01/08 06:22:34;;;;;;;;;;;;;;;;;;5022878;28;13448;-48
2021/01/08 06:25:00;;;;;;;;;;;;;;;;;;5017452;28;9900;-48
2021/01/08 06:27:30;;;;;;;;;;;;;;;;;;5021036;28;7819;-50
2021/01/08 06:29:59;;;;;;;;;;;;;;;;;;5019094;28;4041;-49
2021/01/08 06:32:27;;;;;;;;;;;;;;;;;;5023747;28;7086;-49
2021/01/08 06:34:54;;;;;;;;;;;;;;;;;;5021092;28;10325;-49
2021/01/08 06:37:31;;;;;;;;;;;;;;;;;;5028719;28;10855;-49
2021/01/08 06:39:58;;;;;;;;;;;;;;;;;;5024394;28;8370;-49
2021/01/08 06:42:28;;;;;;;;;;;;;;;;;;5018531;28;7104;-49
2021/01/08 06:45:07;;;;;;;;;;;;;;;;;;;;;
2021/01/08 06:47:35;;;;;;;;;;;;;;;;;;5028166;28;6815;-50
2021/01/08 06:50:01;;;;;;;;;;;;;;;;;;5019544;28;9342;-49
2021/01/08 06:52:29;;;;;;;;;;;;;;;;;;5029899;28;8099;-49
2021/01/08 06:54:54;;;;;;;;;;;;;;;;;;5027407;28;8475;-50
2021/01/08 06:57:21;;;;;;;;;;;;;;;;;;5004393;28;8186;-50
2021/01/08 06:59:56;;;;;;;;;;;;;;;;;;5023501;28;3928;-49
2021/01/08 07:02:23;;;;;;;;;;;;;;;;;;5022750;28;7897;-49
2021/01/08 07:04:48;;;;;;;;;;;;;;;;;;5029151;28;13455;-49
2021/01/08 07:07:24;;;;;;;;;;;;;;;;;;5027909;28;13488;-49
2021/01/08 07:09:49;;;;;;;;;;;;;;;;;;5022288;28;9492;-50
2021/01/08 07:12:15;;;;;;;;;;;;;;;;;;5027474;28;9477;-51
2021/01/08 07:14:40;;;;;;;;;;;;;;;;;;5015923;28;4048;-48
2021/01/08 07:17:08;;;;;;;;;;;;;;;;;;5018090;28;10857;-50
2021/01/08 07:19:35;;;;;;;;;;;;;;;;;;5008115;28;9591;-50
2021/01/08 07:22:02;;;;;;;;;;;;;;;;;;5030481;28;15944;-50
2021/01/08 07:24:29;;;;;;;;;;;;;;;;;;5032569;28;7033;-50
2021/01/08 07:26:54;;;;;;;;;;;;;;;;;;5024424;28;4224;-48
2021/01/08 07:29:27;;;;;;;;;;;;;;;;;;5024984;28;13014;-48
2021/01/08 07:31:54;;;;;;;;;;;;;;;;;;5023761;28;9258;-48
2021/01/08 07:34:31;;;;;;;;;;;;;;;;;;5032344;28;10892;-51
2021/01/08 07:36:56;;;;;;;;;;;;;;;;;;5029544;28;9006;-50
2021/01/08 07:39:54;;;;;;;;;;;;;;;;;;5023927;28;16261;-50
2021/01/08 07:42:32;;;;;;;;;;;;;;;;;;4970455;28;10995;-51
2021/01/08 07:44:58;;;;;;;;;;;;;;;;;;4967513;28;4280;-50
2021/01/08 07:47:24;;;;;;;;;;;;;;;;;;4970990;28;8990;-49
2021/01/08 07:50:09;;;;;;;;;;;;;;;;;;4971438;28;6769;-50
2021/01/08 07:52:41;;;;;;;;;;;;;;;;;;4966954;28;10576;-49
2021/01/08 07:55:07;;;;;;;;;;;;;;;;;;4955805;28;11252;-50
2021/01/08 07:57:51;;;;;;;;;;;;;;;;;;4965727;28;7496;-48
2021/01/08 08:00:26;;;;;;;;;;;;;;;;;;4961396;28;7417;-49
2021/01/08 08:02:54;;;;;;;;;;;;;;;;;;4969285;28;2252;-49
2021/01/08 08:05:20;;;;;;;;;;;;;;;;;;4970607;28;11959;-50
2021/01/08 08:07:46;;;;;;;;;;;;;;;;;;4969686;28;9387;-49
2021/01/08 08:10:11;;;;;;;;;;;;;;;;;;4966682;28;9449;-52
2021/01/08 08:12:37;;;;;;;;;;;;;;;;;;4966467;28;16526;-51
2021/01/08 08:15:03;;;;;;;;;;;;;;;;;;4966325;28;9755;-51
2021/01/08 08:17:28;;;;;;;;;;;;;;;;;;4984303;28;8993;-49
2021/01/08 08:19:54;;;;;;;;;;;;;;;;;;5027770;28;9142;-51
2021/01/08 08:22:33;;;;;;;;;;;;;;;;;;5020873;28;15684;-50
2021/01/08 08:24:59;;;;;;;;;;;;;;;;;;5019060;28;11050;-49
2021/01/08 08:27:24;;;;;;;;;;;;;;;;;;5024045;28;8606;-51
2021/01/08 08:29:49;;;;;;;;;;;;;;;;;;5037882;28;4032;-48
2021/01/08 08:32:15;;;;;;;;;;;;;;;;;;5024909;28;9481;-50
2021/01/08 08:34:40;;;;;;;;;;;;;;;;;;5023694;28;8414;-49
2021/01/08 08:37:09;;;;;;;;;;;;;;;;;;5024746;28;12794;-50
2021/01/08 08:39:35;;;;;;;;;;;;;;;;;;5025616;28;8861;-49
2021/01/08 08:42:00;;;;;;;;;;;;;;;;;;5033344;28;7743;-49
2021/01/08 08:44:26;;;;;;;;;;;;;;;;;;5016878;28;9433;-48
2021/01/08 08:46:52;;;;;;;;;;;;;;;;;;5023663;28;10026;-50
2021/01/08 08:49:18;;;;;;;;;;;;;;;;;;5004975;28;9846;-49
2021/01/08 08:51:44;;;;;;;;;;;;;;;;;;5026404;28;6739;-47
2021/01/08 08:54:10;;;;;;;;;;;;;;;;;;5021661;28;5592;-52
2021/01/08 08:56:38;;;;;;;;;;;;;;;;;;5022273;28;4989;-50
2021/01/08 08:59:04;;;;;;;;;;;;;;;;;;5019769;28;8978;-48
2021/01/08 09:01:39;;;;;;;;;;;;;;;;;;5016918;28;13255;-50
2021/01/08 09:04:05;;;;;;;;;;;;;;;;;;5017914;28;9608;-50
2021/01/08 09:06:34;;;;;;;;;;;;;;;;;;5019106;28;7332;-50
2021/01/08 09:09:00;;;;;;;;;;;;;;;;;;5026766;28;4159;-50
2021/01/08 09:11:38;;;;;;;;;;;;;;;;;;5025931;28;7968;-49
2021/01/08 09:14:08;;;;;;;;;;;;;;;;;;5019118;28;8504;-51
2021/01/08 09:16:42;;;;;;;;;;;;;;;;;;5024899;28;10227;-51
2021/01/08 09:19:08;;;;;;;;;;;;;;;;;;5022000;28;9624;-50
2021/01/08 09:21:37;;;;;;;;;;;;;;;;;;5026233;28;14021;-51
2021/01/08 09:24:03;;;;;;;;;;;;;;;;;;5020283;28;6102;-50
2021/01/08 09:26:30;;;;;;;;;;;;;;;;;;5022580;28;7665;-50
2021/01/08 09:28:55;;;;;;;;;;;;;;;;;;5016748;28;8115;-48
2021/01/08 09:31:37;;;;;;;;;;;;;;;;;;5024089;28;13950;-49
2021/01/08 09:34:02;;;;;;;;;;;;;;;;;;5026626;28;14979;-49
2021/01/08 09:36:28;;;;;;;;;;;;;;;;;;5022774;28;9659;-49
2021/01/08 09:38:57;;;;;;;;;;;;;;;;;;5028951;28;4235;-49
2021/01/08 09:41:23;;;;;;;;;;;;;;;;;;5019987;28;12925;-50
2021/01/08 09:43:55;;;;;;;;;;;;;;;;;;5016514;28;10552;-50
2021/01/08 09:46:20;;;;;;;;;;;;;;;;;;5026166;28;9628;-48
2021/01/08 09:48:46;;;;;;;;;;;;;;;;;;5023436;28;9968;-49
2021/01/08 09:51:11;;;;;;;;;;;;;;;;;;5027636;28;10717;-50
2021/01/08 09:53:36;;;;;;;;;;;;;;;;;;5027822;28;3949;-49
2021/01/08 09:56:14;;;;;;;;;;;;;;;;;;5025766;28;10738;-49
2021/01/08 09:58:40;;;;;;;;;;;;;;;;;;5027043;28;8521;-51
2021/01/08 10:01:06;;;;;;;;;;;;;;;;;;5025072;28;8175;-50
2021/01/08 10:03:31;;;;;;;;;;;;;;;;;;5014183;28;13389;-49
2021/01/08 10:06:04;;;;;;;;;;;;;;;;;;5028296;28;4164;-50
2021/01/08 10:08:29;;;;;;;;;;;;;;;;;;5025900;28;8410;-50
2021/01/08 10:10:54;;;;;;;;;;;;;;;;;;5028321;28;11051;-49
2021/01/08 10:13:21;;;;;;;;;;;;;;;;;;5020897;28;9075;-48
2021/01/08 10:15:51;;;;;;;;;;;;;;;;;;5020939;28;10975;-50
2021/01/08 10:18:21;;;;;;;;;;;;;;;;;;5018584;28;7210;-49
2021/01/08 10:20:47;;;;;;;;;;;;;;;;;;5030720;28;4785;-51
2021/01/08 10:23:17;;;;;;;;;;;;;;;;;;5028284;28;14555;-50
2021/01/08 10:25:42;;;;;;;;;;;;;;;;;;5025733;28;7914;-50
2021/01/08 10:28:18;;;;;;;;;;;;;;;;;;5021672;28;13015;-50
2021/01/08 10:30:45;;;;;;;;;;;;;;;;;;5016712;28;11545;-48
2021/01/08 10:33:10;;;;;;;;;;;;;;;;;;5018414;28;10917;-50
2021/01/08 10:35:35;;;;;;;;;;;;;;;;;;5008122;28;4105;-48
2021/01/08 10:38:01;;;;;;;;;;;;;;;;;;5015003;28;9329;-50
2021/01/08 10:40:26;;;;;;;;;;;;;;;;;;5021643;28;7551;-48
2021/01/08 10:42:52;;;;;;;;;;;;;;;;;;5018098;28;12656;-49
2021/01/08 10:45:18;;;;;;;;;;;;;;;;;;5021448;28;9333;-51
2021/01/08 10:47:43;;;;;;;;;;;;;;;;;;5020612;28;4029;-49
2021/01/08 10:50:10;;;;;;;;;;;;;;;;;;5023144;28;10319;-50
2021/01/08 10:52:35;;;;;;;;;;;;;;;;;;5016767;28;9132;-50
2021/01/08 10:55:00;;;;;;;;;;;;;;;;;;5017561;28;9389;-50
2021/01/08 10:57:25;;;;;;;;;;;;;;;;;;5020526;28;9640;-49
2021/01/08 10:59:51;;;;;;;;;;;;;;;;;;5021808;28;4206;-50
2021/01/08 15:57:50;;;;;;;;;;;;;;;;;;5131325;27;1373;-59
2021/01/08 16:00:16;;;;;;;;;;;;;;;;;;5002689;27;12104;-64
